首页
METAR-TAF:

METAR-TAF

机场 :

Seyresse

達克斯, 法国

纬度: 43-41N, 经度: 001-04W, 海拔: 32米

当前天气观测

该预报发布于23分钟前的19:00 UTC
风速2节,风向东转东北
温度 10°C
湿度 82%
气压 1031 hPa
能见度10公里或以上

METAR: LFBY 211900Z AUTO 06002KT 9999 // ////// 10/07 Q1031

时间: 20:23 (19:23 UTC)

预报

该预报发布于11小时和23分钟前的08:00 UTC
预报有效从21日的 09点(UTC)到 21日的 18点(UTC)
风速3节,风向
能見度: 4000
多云层高于1200英尺
轻雾
短暂存在
从 21日的 09点(UTC)到 21日的 11点(UTC)
能見度: 2000
多云层高于600英尺
多云层高于1200英尺
小毛毛雨
成为
从 21日的 13点(UTC)到 21日的 15点(UTC)
能见度10公里或以上
多云层高于3000英尺

TAF: LFBY 210800Z 2109/2118 09003KT 4000 BR BKN012 TEMPO 2109/2111 2000 -DZ BKN006 BKN012 BECMG 2113/2115 9999 NSW BKN030

超过4000个机场的气象观测和天气预报(METAR&TAF报告)。

可查询的气象台以黄色和红色小点在地图上表示。

将鼠标移到小点上方,可查看气象台名称。

然后点击查看天气观测和预报。

如需切换地图:点击带黑十字的绿色按钮放大地图;点击带横线的绿色按钮缩小地图;或者点击绿色箭头查看邻近地区的地图。


METAR-TAF: